createdAt,value
2023-04-18T00:00:39.967Z,2.200000048
2023-04-18T00:01:41.720Z,2.200000048
2023-04-18T00:02:42.719Z,2.099999905
2023-04-18T00:03:44.273Z,2
2023-04-18T00:04:45.940Z,2.099999905
2023-04-18T00:05:47.686Z,2.099999905
2023-04-18T00:06:48.672Z,2.299999952
2023-04-18T00:07:49.752Z,2
2023-04-18T00:08:51.675Z,1.799999952
2023-04-18T00:10:23.772Z,2.299999952
2023-04-18T00:11:25.687Z,2.599999905
2023-04-18T00:12:26.750Z,2.400000095
2023-04-18T00:13:27.580Z,2.400000095
2023-04-18T00:14:29.096Z,2.200000048
2023-04-18T00:15:30.756Z,2.299999952
2023-04-18T00:16:31.712Z,2.5
2023-04-18T00:17:33.155Z,2.200000048
2023-04-18T00:18:33.987Z,2.299999952
2023-04-18T00:19:35.739Z,2.400000095
2023-04-18T00:20:36.738Z,3.200000048
2023-04-18T00:21:37.709Z,2.099999905
2023-04-18T00:22:38.543Z,2.900000095
2023-04-18T00:23:39.358Z,2.200000048
2023-04-18T00:24:41.164Z,2.599999905
2023-04-18T00:25:42.715Z,2.5
2023-04-18T00:26:44.964Z,2.099999905
2023-04-18T00:27:45.962Z,2.5
2023-04-18T00:28:47.782Z,2.700000048
2023-04-18T00:29:49.739Z,2.5
2023-04-18T00:31:21.743Z,2.299999952
2023-04-18T00:32:22.715Z,2.299999952
2023-04-18T00:33:24.158Z,2.400000095
2023-04-18T00:34:25.712Z,2.599999905
2023-04-18T00:35:27.263Z,3.200000048
2023-04-18T00:36:28.250Z,2.700000048
2023-04-18T00:37:29.220Z,3
2023-04-18T00:38:30.007Z,2.599999905
2023-04-18T00:39:32.100Z,3.099999905
2023-04-18T00:40:33.701Z,3.200000048
2023-04-18T00:41:34.617Z,2.799999952
2023-04-18T00:42:35.379Z,2.5
2023-04-18T00:43:36.311Z,2.400000095
2023-04-18T00:44:38.253Z,2.799999952
2023-04-18T00:45:39.727Z,2.799999952
2023-04-18T00:46:40.707Z,2.799999952
2023-04-18T00:47:41.665Z,3
2023-04-18T00:48:42.504Z,2.799999952
2023-04-18T00:49:44.253Z,2.799999952
2023-04-18T00:50:45.159Z,3
2023-04-18T00:51:46.217Z,3.099999905
2023-04-18T00:52:47.280Z,3.099999905
2023-04-18T00:53:48.727Z,3.099999905
2023-04-18T00:54:50.233Z,3.200000048
2023-04-18T00:56:22.783Z,2.799999952
2023-04-18T00:57:23.708Z,3.400000095
2023-04-18T00:58:24.468Z,3
2023-04-18T00:59:26.075Z,2.900000095
2023-04-18T01:00:26.921Z,3.400000095
2023-04-18T01:01:27.875Z,2.900000095
2023-04-18T01:02:29.035Z,3.099999905
2023-04-18T01:03:30.226Z,3.400000095
2023-04-18T01:04:31.336Z,3.400000095
2023-04-18T01:05:33.310Z,3.599999905
2023-04-18T01:06:34.282Z,3.200000048
2023-04-18T01:07:35.384Z,3.400000095
2023-04-18T01:08:36.285Z,2.900000095
2023-04-18T01:09:38.215Z,3.299999952
2023-04-18T01:10:40.159Z,3.5
2023-04-18T01:11:41.216Z,3.799999952
2023-04-18T01:12:41.977Z,3.799999952
2023-04-18T01:13:42.793Z,3.700000048
2023-04-18T01:14:44.633Z,3.400000095
2023-04-18T01:15:46.296Z,3.599999905
2023-04-18T01:16:47.093Z,3.400000095
2023-04-18T01:17:47.972Z,3.799999952
2023-04-18T01:18:49.718Z,2.900000095
2023-04-18T01:20:21.716Z,3.400000095
2023-04-18T01:21:22.651Z,3.5
2023-04-18T01:22:24.129Z,3.400000095
2023-04-18T01:23:24.932Z,3.299999952
2023-04-18T01:24:26.845Z,3.099999905
2023-04-18T01:25:27.658Z,3.599999905
2023-04-18T01:26:29.279Z,3.5
2023-04-18T01:27:30.195Z,3.599999905
2023-04-18T01:28:31.067Z,3.299999952
2023-04-18T01:29:32.668Z,3.400000095
2023-04-18T01:30:33.876Z,3.700000048
2023-04-18T01:31:34.743Z,3.099999905
2023-04-18T01:32:35.609Z,3.299999952
2023-04-18T01:33:36.369Z,3.599999905
2023-04-18T01:34:38.076Z,3.700000048
2023-04-18T01:35:39.689Z,3.400000095
2023-04-18T01:36:41.310Z,3.700000048
2023-04-18T01:37:42.120Z,3.099999905
2023-04-18T01:38:42.966Z,3.099999905
2023-04-18T01:39:44.657Z,3.299999952
2023-04-18T01:40:46.139Z,3.400000095
2023-04-18T01:41:47.012Z,3.400000095
2023-04-18T01:42:47.931Z,3.299999952
2023-04-18T01:43:48.735Z,3.900000095
2023-04-18T01:45:20.726Z,3
2023-04-18T01:46:22.187Z,3.5
2023-04-18T01:47:23.684Z,3.599999905
2023-04-18T01:48:24.777Z,3.5
2023-04-18T01:49:26.191Z,3.099999905
2023-04-18T01:50:27.179Z,3.299999952
2023-04-18T01:51:28.050Z,3.299999952
2023-04-18T01:52:28.870Z,3.400000095
2023-04-18T01:53:29.907Z,3.400000095
2023-04-18T01:54:31.711Z,3.5
2023-04-18T01:55:32.681Z,3.700000048
2023-04-18T01:56:34.211Z,3.900000095
2023-04-18T01:57:35.045Z,3.700000048
2023-04-18T01:58:35.964Z,3.900000095
2023-04-18T01:59:37.628Z,3.700000048
2023-04-18T02:00:38.629Z,3.5
2023-04-18T02:01:39.674Z,3.299999952
2023-04-18T02:02:40.710Z,3.299999952
2023-04-18T02:03:41.723Z,3.799999952
2023-04-18T02:04:43.177Z,4.300000191
2023-04-18T02:05:44.370Z,3.599999905
2023-04-18T02:06:46.203Z,3.799999952
2023-04-18T02:07:46.980Z,3.700000048
2023-04-18T02:08:48.781Z,3.799999952
2023-04-18T02:10:21.313Z,3.700000048
2023-04-18T02:11:23.253Z,3.599999905
2023-04-18T02:12:24.061Z,3.900000095
2023-04-18T02:13:25.004Z,3.900000095
2023-04-18T02:14:26.756Z,3.400000095
2023-04-18T02:15:27.588Z,3.700000048
2023-04-18T02:16:29.784Z,3.599999905
2023-04-18T02:17:30.610Z,3.599999905
2023-04-18T02:18:31.451Z,3.5
2023-04-18T02:19:33.526Z,3.900000095
2023-04-18T02:20:34.422Z,4.5
2023-04-18T02:21:35.528Z,3.700000048
2023-04-18T02:22:36.409Z,3.900000095
2023-04-18T02:23:37.348Z,4
2023-04-18T02:24:39.225Z,4
2023-04-18T02:25:40.168Z,3.799999952
2023-04-18T02:26:41.788Z,3.700000048
2023-04-18T02:27:42.794Z,3.5
2023-04-18T02:28:43.955Z,3.599999905
2023-04-18T02:29:45.885Z,4.5
2023-04-18T02:30:46.884Z,3.799999952
2023-04-18T02:31:47.835Z,3.700000048
2023-04-18T02:32:48.664Z,4
2023-04-18T02:34:20.709Z,3.799999952
2023-04-18T02:35:21.658Z,3.700000048
2023-04-18T02:36:23.214Z,4.099999905
2023-04-18T02:37:24.243Z,4.099999905
2023-04-18T02:38:25.196Z,3.799999952
2023-04-18T02:39:26.560Z,4.099999905
2023-04-18T02:40:28.132Z,3.900000095
2023-04-18T02:41:28.997Z,3.5
2023-04-18T02:42:29.847Z,4.300000191
2023-04-18T02:43:30.707Z,3.400000095
2023-04-18T02:44:32.343Z,3.799999952
2023-04-18T02:45:34.134Z,3.599999905
2023-04-18T02:46:35.690Z,3.599999905
2023-04-18T02:47:43.807Z,3.799999952
2023-04-18T02:48:37.400Z,3.599999905
2023-04-18T02:49:39.324Z,3.400000095
2023-04-18T02:50:40.182Z,3.799999952
2023-04-18T02:51:41.139Z,3.799999952
2023-04-18T02:52:42.079Z,3.599999905
2023-04-18T02:53:43.086Z,3.700000048
2023-04-18T02:54:44.653Z,3.200000048
2023-04-18T02:55:45.433Z,3.700000048
2023-04-18T02:56:47.184Z,3.599999905
2023-04-18T02:57:47.994Z,4.5
2023-04-18T02:59:20.162Z,3.900000095
2023-04-18T03:00:21.055Z,3.299999952
2023-04-18T03:01:22.037Z,3.700000048
2023-04-18T03:02:23.149Z,3.599999905
2023-04-18T03:03:23.967Z,3.700000048
2023-04-18T03:04:25.766Z,4
2023-04-18T03:05:27.848Z,3.400000095
2023-04-18T03:06:29.688Z,3.5
2023-04-18T03:07:30.449Z,3.700000048
2023-04-18T03:08:31.374Z,3.599999905
2023-04-18T03:09:33.101Z,3.900000095
2023-04-18T03:10:34.689Z,4.400000095
2023-04-18T03:11:35.478Z,3.599999905
2023-04-18T03:12:36.354Z,4.599999905
2023-04-18T03:13:37.258Z,4
2023-04-18T03:14:38.596Z,3.799999952
2023-04-18T03:15:39.540Z,4.099999905
2023-04-18T03:16:41.162Z,3.400000095
2023-04-18T03:17:42.068Z,3.799999952
2023-04-18T03:18:42.958Z,3.700000048
2023-04-18T03:19:44.778Z,3.5
2023-04-18T03:20:45.585Z,3.400000095
2023-04-18T03:21:47.157Z,3.700000048
2023-04-18T03:22:48.139Z,3.700000048
2023-04-18T03:24:20.202Z,3.900000095
2023-04-18T03:25:21.078Z,3.900000095
2023-04-18T03:26:22.047Z,4
2023-04-18T03:27:23.650Z,4.800000191
2023-04-18T03:28:24.571Z,3.599999905
2023-04-18T03:29:26.236Z,4
2023-04-18T03:30:27.045Z,3.900000095
2023-04-18T03:31:28.005Z,3.799999952
2023-04-18T03:32:28.909Z,3.700000048
2023-04-18T03:33:29.874Z,3.900000095
2023-04-18T03:34:31.718Z,3.400000095
2023-04-18T03:35:32.626Z,4
2023-04-18T03:36:34.262Z,4
2023-04-18T03:37:35.698Z,4.400000095
2023-04-18T03:38:36.592Z,3.700000048
2023-04-18T03:39:38.296Z,4.199999809
2023-04-18T03:40:39.174Z,3.900000095
2023-04-18T03:41:40.727Z,3.700000048
2023-04-18T03:42:41.761Z,4.5
2023-04-18T03:43:42.603Z,4.5
2023-04-18T03:44:44.299Z,3.700000048
2023-04-18T03:45:45.237Z,4.300000191
2023-04-18T03:46:46.777Z,3.799999952
2023-04-18T03:47:47.748Z,3.799999952
2023-04-18T03:49:19.707Z,3.400000095
2023-04-18T03:50:20.577Z,4.199999809
2023-04-18T03:51:22.245Z,3.599999905
2023-04-18T03:52:23.150Z,3.799999952
2023-04-18T03:53:24.804Z,3.599999905
2023-04-18T03:54:26.698Z,3.799999952
2023-04-18T03:55:27.622Z,3.799999952
2023-04-18T03:56:28.496Z,3.799999952
2023-04-18T03:57:30.181Z,3.299999952
2023-04-18T03:58:31.045Z,4
2023-04-18T03:59:32.719Z,4
2023-04-18T04:00:33.709Z,3.599999905
2023-04-18T04:01:34.571Z,4.099999905
2023-04-18T04:02:35.644Z,3.700000048
2023-04-18T04:03:36.584Z,4.300000191
2023-04-18T04:04:38.254Z,3.5
2023-04-18T04:05:39.226Z,4
2023-04-18T04:06:40.203Z,3.900000095
2023-04-18T04:07:41.748Z,3.599999905
2023-04-18T04:08:42.761Z,3.400000095
2023-04-18T04:09:44.774Z,3.700000048
2023-04-18T04:10:46.226Z,4
2023-04-18T04:11:47.127Z,4.300000191
2023-04-18T04:13:19.050Z,3.400000095
2023-04-18T04:14:20.783Z,3.599999905
2023-04-18T04:15:21.824Z,3.799999952
2023-04-18T04:16:22.796Z,4
2023-04-18T04:17:24.224Z,3.799999952
2023-04-18T04:18:25.043Z,3.599999905
2023-04-18T04:19:25.885Z,4
2023-04-18T04:20:27.725Z,4.099999905
2023-04-18T04:21:28.611Z,3.599999905
2023-04-18T04:22:29.521Z,4.300000191
2023-04-18T04:23:30.501Z,3.900000095
2023-04-18T04:24:32.269Z,4
2023-04-18T04:25:33.119Z,4.099999905
2023-04-18T04:26:34.030Z,4.599999905
2023-04-18T04:27:35.581Z,4
2023-04-18T04:28:36.460Z,4.5
2023-04-18T04:29:38.262Z,3.900000095
2023-04-18T04:30:39.140Z,3.799999952
2023-04-18T04:31:40.160Z,3.700000048
2023-04-18T04:32:41.049Z,4
2023-04-18T04:33:41.833Z,3.700000048
2023-04-18T04:34:43.983Z,4.300000191
2023-04-18T04:35:44.950Z,3.799999952
2023-04-18T04:36:45.766Z,4
2023-04-18T04:37:47.225Z,3.599999905
2023-04-18T04:39:19.199Z,3.900000095
2023-04-18T04:40:20.773Z,3.700000048
2023-04-18T04:41:21.641Z,4.099999905
2023-04-18T04:42:22.572Z,3.400000095
2023-04-18T04:43:23.565Z,4
2023-04-18T04:44:25.242Z,4.199999809
2023-04-18T04:45:26.520Z,4.699999809
2023-04-18T04:46:28.238Z,3.900000095
2023-04-18T04:47:29.814Z,4.300000191
2023-04-18T04:48:30.686Z,4
2023-04-18T04:49:32.245Z,4.400000095
2023-04-18T04:50:33.316Z,4.5
2023-04-18T04:51:34.239Z,3.900000095
2023-04-18T04:52:35.052Z,4.300000191
2023-04-18T04:53:35.965Z,3.900000095
2023-04-18T04:54:37.686Z,4.400000095
2023-04-18T04:55:38.828Z,4.300000191
2023-04-18T04:56:39.648Z,4
2023-04-18T04:57:41.212Z,3.900000095
2023-04-18T04:58:42.665Z,4.400000095
2023-04-18T04:59:44.274Z,3.900000095
2023-04-18T05:00:45.254Z,4.199999809
2023-04-18T05:01:46.187Z,4.199999809
2023-04-18T05:02:47.566Z,4.300000191
2023-04-18T05:04:19.667Z,4.800000191
2023-04-18T05:05:20.066Z,5
2023-04-18T05:06:21.074Z,4.300000191
2023-04-18T05:07:22.785Z,4
2023-04-18T05:08:23.669Z,4.099999905
2023-04-18T05:09:25.184Z,4.599999905
2023-04-18T05:10:26.710Z,4.199999809
2023-04-18T05:11:27.591Z,4.400000095
2023-04-18T05:12:29.185Z,4.099999905
2023-04-18T05:13:30.102Z,3.799999952
2023-04-18T05:14:31.729Z,4
2023-04-18T05:15:32.678Z,4.400000095
2023-04-18T05:16:33.835Z,4.599999905
2023-04-18T05:17:35.392Z,4.800000191
2023-04-18T05:18:36.313Z,4.599999905
2023-04-18T05:19:37.243Z,4.5
2023-04-18T05:20:38.713Z,3.900000095
2023-04-18T05:21:39.645Z,3.900000095
2023-04-18T05:22:40.682Z,4.099999905
2023-04-18T05:23:41.652Z,4
2023-04-18T05:24:43.155Z,4.5
2023-04-18T05:25:44.612Z,4.5
2023-04-18T05:26:45.615Z,4.300000191
2023-04-18T05:27:47.310Z,4.599999905
2023-04-18T05:29:19.248Z,4.900000095
2023-04-18T05:30:20.163Z,4.5
2023-04-18T05:31:20.974Z,4.5
2023-04-18T05:32:22.073Z,4.300000191
2023-04-18T05:33:23.101Z,4.300000191
2023-04-18T05:34:24.824Z,4.099999905
2023-04-18T05:35:25.770Z,4.400000095
2023-04-18T05:36:26.675Z,4.699999809
2023-04-18T05:37:28.268Z,4.599999905
2023-04-18T05:38:29.743Z,4.199999809
2023-04-18T05:39:31.246Z,4.400000095
2023-04-18T05:40:32.143Z,4.599999905
2023-04-18T05:41:33.660Z,5
2023-04-18T05:42:34.736Z,4.5
2023-04-18T05:43:35.635Z,4.400000095
2023-04-18T05:44:37.221Z,4.699999809
2023-04-18T05:45:38.048Z,5.300000191
2023-04-18T05:46:39.007Z,4.5
2023-04-18T05:47:40.811Z,4.800000191
2023-04-18T05:48:41.776Z,3.900000095
2023-04-18T05:49:43.194Z,4.599999905
2023-04-18T05:50:44.223Z,4.300000191
2023-04-18T05:51:45.060Z,4.400000095
2023-04-18T05:52:46.197Z,4.699999809
2023-04-18T05:54:18.235Z,4.699999809
2023-04-18T05:55:19.227Z,4.099999905
2023-04-18T05:56:20.010Z,4.699999809
2023-04-18T05:57:20.957Z,4.199999809
2023-04-18T05:58:22.772Z,5.099999905
2023-04-18T05:59:24.206Z,4.800000191
2023-04-18T06:00:25.068Z,4.900000095
2023-04-18T06:01:25.919Z,4.599999905
2023-04-18T06:02:27.018Z,4.5
2023-04-18T06:03:28.101Z,4.5
2023-04-18T06:04:29.792Z,4.599999905
2023-04-18T06:05:30.864Z,4.699999809
2023-04-18T06:06:31.477Z,4.099999905
2023-04-18T06:07:33.307Z,4.800000191
2023-04-18T06:08:35.280Z,4.900000095
2023-04-18T06:09:37.282Z,4.599999905
2023-04-18T06:10:39.292Z,4.5
2023-04-18T06:11:39.624Z,4.800000191
2023-04-18T06:12:40.755Z,5.400000095
2023-04-18T06:13:41.768Z,4.400000095
2023-04-18T06:14:43.289Z,4.800000191
2023-04-18T06:15:44.250Z,5.300000191
2023-04-18T06:16:45.203Z,5
2023-04-18T06:17:47.582Z,5
2023-04-18T06:19:19.720Z,4.900000095
2023-04-18T06:20:21.150Z,4.599999905
2023-04-18T06:21:22.184Z,4.699999809
2023-04-18T06:22:23.223Z,5.400000095
2023-04-18T06:23:24.281Z,5
2023-04-18T06:24:26.185Z,4.699999809
2023-04-18T06:25:27.082Z,4.800000191
2023-04-18T06:26:27.943Z,4.900000095
2023-04-18T06:27:31.434Z,4.800000191
2023-04-18T06:28:30.688Z,4.5
2023-04-18T06:29:31.558Z,5
2023-04-18T06:30:33.265Z,5.099999905
2023-04-18T06:31:34.409Z,4.800000191
2023-04-18T06:32:35.490Z,4.599999905
2023-04-18T06:33:36.310Z,4.800000191
2023-04-18T06:34:37.720Z,4.900000095
2023-04-18T06:35:38.700Z,5
2023-04-18T06:36:40.244Z,4.5
2023-04-18T06:37:41.244Z,5
2023-04-18T06:38:42.785Z,5.099999905
2023-04-18T06:39:44.709Z,4.599999905
2023-04-18T06:40:46.317Z,4.699999809
2023-04-18T06:42:18.708Z,5.199999809
2023-04-18T06:43:18.924Z,4.900000095
2023-04-18T06:44:20.720Z,5.900000095
2023-04-18T06:45:21.632Z,4.900000095
2023-04-18T06:46:23.302Z,5
2023-04-18T06:47:24.615Z,5.400000095
2023-04-18T06:48:26.273Z,4.900000095
2023-04-18T06:49:27.138Z,5.099999905
2023-04-18T06:50:28.714Z,5.400000095
2023-04-18T06:51:29.914Z,4.900000095
2023-04-18T06:52:31.019Z,4.900000095
2023-04-18T06:53:31.912Z,5.199999809
2023-04-18T06:54:33.735Z,5.699999809
2023-04-18T06:55:34.676Z,4.900000095
2023-04-18T06:56:36.601Z,5.099999905
2023-04-18T06:57:36.811Z,5.099999905
2023-04-18T06:58:38.785Z,4.800000191
2023-04-18T06:59:40.213Z,5.400000095
2023-04-18T07:00:41.120Z,5.699999809
2023-04-18T07:01:42.255Z,5.300000191
2023-04-18T07:02:43.371Z,4.900000095
2023-04-18T07:03:44.395Z,4.699999809
2023-04-18T07:05:16.709Z,4.900000095
2023-04-18T07:06:18.253Z,5.5
2023-04-18T07:07:19.340Z,5.599999905
2023-04-18T07:08:21.240Z,5.300000191
2023-04-18T07:09:23.295Z,5.199999809
2023-04-18T07:10:24.206Z,5.199999809
2023-04-18T07:11:25.754Z,4.599999905
2023-04-18T07:12:26.771Z,4.900000095
2023-04-18T07:13:27.643Z,5.099999905
2023-04-18T07:14:29.278Z,5.199999809
2023-04-18T07:15:30.384Z,4.5
2023-04-18T07:16:31.573Z,5.099999905
2023-04-18T07:17:33.354Z,4.900000095
2023-04-18T07:18:37.996Z,4.900000095
2023-04-18T07:19:35.942Z,4.900000095
2023-04-18T07:20:37.825Z,6.900000095
2023-04-18T07:21:38.974Z,5.199999809
2023-04-18T07:22:40.723Z,5.300000191
2023-04-18T07:23:42.112Z,4.800000191
2023-04-18T07:24:42.986Z,5.599999905
2023-04-18T07:25:44.282Z,5.199999809
2023-04-18T07:26:45.732Z,4.900000095
2023-04-18T07:28:17.754Z,5.099999905
2023-04-18T07:29:18.503Z,5.400000095
2023-04-18T07:30:20.161Z,4.800000191
2023-04-18T07:31:21.258Z,5
2023-04-18T07:32:22.215Z,4.699999809
2023-04-18T07:33:23.042Z,5.400000095
2023-04-18T07:34:24.782Z,5
2023-04-18T07:35:26.231Z,5
2023-04-18T07:36:27.247Z,4.800000191
2023-04-18T07:37:29.239Z,5.5
2023-04-18T07:38:31.317Z,4.900000095
2023-04-18T07:39:32.221Z,4.400000095
2023-04-18T07:40:33.844Z,4.800000191
2023-04-18T07:41:34.770Z,4.5
2023-04-18T07:42:35.718Z,4.400000095
2023-04-18T07:43:36.577Z,5
2023-04-18T07:44:38.266Z,4.199999809
2023-04-18T07:45:39.273Z,5.099999905
2023-04-18T07:46:40.928Z,5.099999905
2023-04-18T07:47:42.016Z,4.699999809
2023-04-18T07:48:43.733Z,5.300000191
2023-04-18T07:49:44.653Z,4.400000095
2023-04-18T07:51:16.913Z,4.400000095
2023-04-18T07:52:17.850Z,4.800000191
2023-04-18T07:53:18.652Z,4.699999809
2023-04-18T07:54:20.140Z,4.800000191
2023-04-18T07:55:21.759Z,4.699999809
2023-04-18T07:56:22.693Z,4.300000191
2023-04-18T07:57:24.342Z,4.699999809
2023-04-18T07:58:26.089Z,4.699999809
2023-04-18T07:59:27.015Z,5.300000191
2023-04-18T08:00:27.995Z,5
2023-04-18T08:01:28.902Z,4.5
2023-04-18T08:02:29.938Z,4.900000095
2023-04-18T08:03:30.895Z,4.699999809
2023-04-18T08:04:32.357Z,5.099999905
2023-04-18T08:05:33.344Z,4.400000095
2023-04-18T08:06:34.329Z,4.699999809
2023-04-18T08:07:35.254Z,4.5
2023-04-18T08:08:36.717Z,4.599999905
2023-04-18T08:09:38.553Z,4
2023-04-18T08:10:41.848Z,4.400000095
2023-04-18T08:11:42.824Z,5.900000095
2023-04-18T08:12:44.123Z,4.699999809
2023-04-18T08:14:15.843Z,6.199999809
2023-04-18T08:15:17.807Z,5.599999905
2023-04-18T08:16:18.786Z,5.199999809
2023-04-18T08:17:19.763Z,4.300000191
2023-04-18T08:18:20.597Z,4.599999905
2023-04-18T08:19:22.184Z,4.199999809
2023-04-18T08:20:23.145Z,4.699999809
2023-04-18T08:21:24.129Z,4.900000095
2023-04-18T08:22:25.150Z,4.199999809
2023-04-18T08:23:25.955Z,4.300000191
2023-04-18T08:24:27.769Z,4.800000191
2023-04-18T08:25:29.875Z,3.900000095
2023-04-18T08:26:31.079Z,4.699999809
2023-04-18T08:27:32.022Z,4.599999905
2023-04-18T08:28:32.839Z,3.900000095
2023-04-18T08:29:34.868Z,4.5
2023-04-18T08:30:36.800Z,4.199999809
2023-04-18T08:31:37.828Z,4.099999905
2023-04-18T08:32:38.726Z,4.599999905
2023-04-18T08:33:39.528Z,3.799999952
2023-04-18T08:34:41.249Z,4.099999905
2023-04-18T08:35:42.339Z,3.900000095
2023-04-18T08:36:43.223Z,3.799999952
2023-04-18T08:37:44.188Z,3.599999905
2023-04-18T08:39:16.718Z,4
2023-04-18T08:40:17.696Z,3.799999952
2023-04-18T08:41:19.311Z,4.199999809
2023-04-18T08:42:20.341Z,3.900000095
2023-04-18T08:43:21.231Z,4
2023-04-18T08:44:22.115Z,3.900000095
2023-04-18T08:45:23.748Z,4.599999905
2023-04-18T08:46:25.012Z,4.099999905
2023-04-18T08:47:25.898Z,4.699999809
2023-04-18T08:48:26.752Z,3.900000095
2023-04-18T08:49:28.172Z,3.799999952
2023-04-18T08:50:29.747Z,3.900000095
2023-04-18T08:51:30.713Z,3.900000095
2023-04-18T08:52:31.608Z,3.900000095
2023-04-18T08:53:32.396Z,4.599999905
2023-04-18T08:54:34.360Z,4.099999905
2023-04-18T08:55:35.397Z,4.300000191
2023-04-18T08:56:36.385Z,4.199999809
2023-04-18T08:57:37.253Z,4.199999809
2023-04-18T08:58:38.699Z,4.900000095
2023-04-18T08:59:40.327Z,4.800000191
2023-04-18T09:00:41.345Z,5.099999905
2023-04-18T09:01:42.317Z,4.599999905
2023-04-18T09:02:43.314Z,4.900000095
2023-04-18T09:03:44.774Z,4.699999809
2023-04-18T09:05:16.344Z,5.400000095
2023-04-18T09:06:18.180Z,4.599999905
2023-04-18T09:07:19.094Z,4.599999905
2023-04-18T09:08:20.030Z,4.099999905
2023-04-18T09:09:21.771Z,4.199999809
2023-04-18T09:10:22.896Z,3.799999952
2023-04-18T09:11:24.920Z,4.099999905
2023-04-18T09:12:25.827Z,3.799999952
2023-04-18T09:13:27.208Z,3.900000095
2023-04-18T09:14:28.776Z,3.900000095
2023-04-18T09:15:31.984Z,3.700000048
2023-04-18T09:16:32.877Z,3.900000095
2023-04-18T09:17:33.769Z,3.799999952
2023-04-18T09:18:34.593Z,3.5
2023-04-18T09:19:36.300Z,3.299999952
2023-04-18T09:20:38.630Z,4.300000191
2023-04-18T09:21:39.255Z,4.300000191
2023-04-18T09:22:40.119Z,3.700000048
2023-04-18T09:23:41.627Z,3.900000095
2023-04-18T09:24:43.268Z,4.400000095
2023-04-18T09:26:15.278Z,4.199999809
2023-04-18T09:27:16.657Z,4
2023-04-18T09:28:17.505Z,4.599999905
2023-04-18T09:29:19.296Z,4.099999905
2023-04-18T09:30:21.238Z,4.699999809
2023-04-18T09:31:22.350Z,5.400000095
2023-04-18T09:32:23.206Z,5.800000191
2023-04-18T09:33:23.968Z,5.300000191
2023-04-18T09:34:25.190Z,4.800000191
2023-04-18T09:35:27.131Z,4.5
2023-04-18T09:36:28.273Z,4
2023-04-18T09:37:29.112Z,4.400000095
2023-04-18T09:38:30.724Z,5.300000191
2023-04-18T09:39:32.344Z,5.199999809
2023-04-18T09:40:33.350Z,5.900000095
2023-04-18T09:41:35.313Z,4.400000095
2023-04-18T09:42:36.123Z,4.400000095
2023-04-18T09:43:36.973Z,3.900000095
2023-04-18T09:44:38.752Z,4.699999809
2023-04-18T09:45:39.720Z,4
2023-04-18T09:46:40.767Z,4.699999809
2023-04-18T09:47:41.585Z,4.599999905
2023-04-18T09:48:43.226Z,3.799999952
2023-04-18T09:50:15.757Z,4.599999905
2023-04-18T09:51:16.727Z,5
2023-04-18T09:52:17.659Z,4.800000191
2023-04-18T09:53:20.139Z,4.300000191
2023-04-18T09:54:19.494Z,4
2023-04-18T09:55:21.203Z,3.700000048
2023-04-18T09:56:22.137Z,3.900000095
2023-04-18T09:57:23.023Z,4.800000191
2023-04-18T09:58:24.191Z,4.699999809
2023-04-18T09:59:25.782Z,4.300000191
2023-04-18T10:00:27.267Z,4
2023-04-18T10:01:28.310Z,5
2023-04-18T10:02:29.349Z,4
2023-04-18T10:03:30.218Z,3.799999952
2023-04-18T10:04:31.878Z,3.700000048
2023-04-18T10:05:33.816Z,3.799999952
2023-04-18T10:06:34.698Z,4.599999905
2023-04-18T10:07:35.605Z,3.900000095
2023-04-18T10:08:36.498Z,4.400000095
2023-04-18T10:09:38.320Z,2.900000095
2023-04-18T10:10:39.456Z,3
2023-04-18T10:11:41.120Z,3
2023-04-18T10:12:41.976Z,3.5
2023-04-18T10:13:42.800Z,2.900000095
2023-04-18T10:15:15.397Z,3.099999905
2023-04-18T10:16:16.481Z,2.900000095
2023-04-18T10:17:17.423Z,3.299999952
2023-04-18T10:18:18.466Z,3.299999952
2023-04-18T10:19:19.362Z,3.299999952
2023-04-18T10:20:21.312Z,3.700000048
2023-04-18T10:21:22.196Z,3.599999905
2023-04-18T10:22:23.054Z,3.700000048
2023-04-18T10:23:25.087Z,4.5
2023-04-18T10:24:25.038Z,3.599999905
2023-04-18T10:25:26.714Z,3.5
2023-04-18T10:26:27.614Z,3.599999905
2023-04-18T10:27:28.459Z,4.300000191
2023-04-18T10:28:29.356Z,4.199999809
2023-04-18T10:29:31.430Z,3.299999952
2023-04-18T10:30:33.280Z,4.599999905
2023-04-18T10:31:34.186Z,4.400000095
2023-04-18T10:32:35.045Z,4.300000191
2023-04-18T10:33:36.059Z,3.900000095
2023-04-18T10:34:37.780Z,3.700000048
2023-04-18T10:35:40.892Z,3.799999952
2023-04-18T10:36:39.824Z,4.900000095
2023-04-18T10:37:41.612Z,4.099999905
2023-04-18T10:38:42.557Z,4
2023-04-18T10:40:15.789Z,4.300000191
2023-04-18T10:41:16.824Z,3.900000095
2023-04-18T10:42:17.653Z,3.599999905
2023-04-18T10:43:18.645Z,3.599999905
2023-04-18T10:44:19.766Z,3.400000095
2023-04-18T10:45:21.393Z,4.099999905
2023-04-18T10:46:31.730Z,3.200000048
2023-04-18T10:47:23.286Z,4.400000095
2023-04-18T10:48:24.159Z,3.400000095
2023-04-18T10:49:27.343Z,3.700000048
2023-04-18T10:50:26.765Z,3.900000095
2023-04-18T10:51:27.756Z,7.599999905
2023-04-18T10:52:28.610Z,6.5
2023-04-18T10:53:29.514Z,4.599999905
2023-04-18T10:54:31.357Z,4.099999905
2023-04-18T10:55:33.274Z,3.799999952
2023-04-18T10:56:34.251Z,3.5
2023-04-18T10:57:35.111Z,3.400000095
2023-04-18T10:58:36.100Z,3.5
2023-04-18T10:59:37.788Z,3.5
2023-04-18T11:00:39.798Z,3.099999905
2023-04-18T11:01:40.717Z,3.200000048
2023-04-18T11:02:41.697Z,3.200000048
2023-04-18T11:03:42.580Z,3.299999952
2023-04-18T11:05:15.296Z,3
2023-04-18T11:06:17.336Z,3.400000095
2023-04-18T11:07:18.270Z,3.400000095
2023-04-18T11:08:19.320Z,3.299999952
2023-04-18T11:09:21.276Z,3.400000095
2023-04-18T11:10:22.752Z,3.799999952
2023-04-18T11:11:23.810Z,3.599999905
2023-04-18T11:12:24.898Z,3.599999905
2023-04-18T11:13:25.755Z,3.299999952
2023-04-18T11:14:26.788Z,3.700000048
2023-04-18T11:15:30.390Z,3.099999905
2023-04-18T11:16:29.177Z,3.700000048
2023-04-18T11:17:30.096Z,3.5
2023-04-18T11:18:30.918Z,3.5
2023-04-18T11:19:32.784Z,3.400000095
2023-04-18T11:20:34.878Z,3.700000048
2023-04-18T11:21:35.742Z,4
2023-04-18T11:22:36.599Z,3.5
2023-04-18T11:23:37.504Z,3.900000095
2023-04-18T11:24:39.307Z,3.5
2023-04-18T11:25:40.422Z,3.700000048
2023-04-18T11:26:41.292Z,3.799999952
2023-04-18T11:27:42.252Z,3.299999952
2023-04-18T11:29:13.819Z,3
2023-04-18T11:30:15.838Z,3.5
2023-04-18T11:31:17.695Z,3.5
2023-04-18T11:32:18.735Z,3.799999952
2023-04-18T11:33:20.359Z,3.700000048
2023-04-18T11:34:21.239Z,3.799999952
2023-04-18T11:35:22.862Z,3.400000095
2023-04-18T11:36:25.546Z,3.599999905
2023-04-18T11:37:26.444Z,3
2023-04-18T11:38:27.371Z,3.599999905
2023-04-18T11:39:29.304Z,3.299999952
2023-04-18T11:40:30.821Z,3
2023-04-18T11:41:31.704Z,3.599999905
2023-04-18T11:42:32.627Z,3
2023-04-18T11:43:33.681Z,3.5
2023-04-18T11:44:36.332Z,3.700000048
2023-04-18T11:45:36.353Z,3
2023-04-18T11:46:37.317Z,3.700000048
2023-04-18T11:47:38.216Z,3.5